Time,TemperatureF,DewpointF,PressureIn,WindDirection,WindDirectionDegrees,WindSpeedMPH,WindSpeedGustMPH,Humidity,HourlyPrecipIn,Conditions,Clouds,dailyrainin,SoftwareType,DateUTC
2013-08-03 00:07:00,62.2,62.0,29.94,NNE,14,0.0,0.0,98,0.00,,,0.00,weatherlink.com 1.10,2013-08-03 04:07:00,
2013-08-03 00:22:00,62.3,62.0,29.95,NNE,14,0.0,0.0,98,0.00,,,0.00,weatherlink.com 1.10,2013-08-03 04:22:00,
2013-08-03 00:37:00,62.2,62.0,29.95,NNE,15,0.0,0.0,98,0.00,,,0.00,weatherlink.com 1.10,2013-08-03 04:37:00,
2013-08-03 00:52:00,62.4,62.0,29.96,NNE,14,0.0,0.0,98,0.00,,,0.00,weatherlink.com 1.10,2013-08-03 04:52:00,
2013-08-03 01:07:00,62.6,62.0,29.97,NNE,14,0.0,0.0,98,0.00,,,0.00,weatherlink.com 1.10,2013-08-03 05:07:00,
2013-08-03 01:22:00,62.7,62.0,29.97,NNE,15,0.0,0.0,98,0.00,,,0.00,weatherlink.com 1.10,2013-08-03 05:22:00,
2013-08-03 01:37:00,62.8,62.0,29.98,NNE,15,0.0,0.0,98,0.00,,,0.00,weatherlink.com 1.10,2013-08-03 05:37:00,
2013-08-03 01:52:00,62.8,62.0,29.98,NNE,14,0.0,0.0,98,0.00,,,0.00,weatherlink.com 1.10,2013-08-03 05:52:00,
2013-08-03 02:07:00,62.8,62.0,29.98,NNE,15,0.0,0.0,98,0.00,,,0.00,weatherlink.com 1.10,2013-08-03 06:07:00,
2013-08-03 02:22:00,62.8,62.0,29.98,NNE,14,0.0,0.0,98,0.00,,,0.00,weatherlink.com 1.10,2013-08-03 06:22:00,
2013-08-03 02:37:00,62.7,62.0,29.98,NNE,15,0.0,0.0,98,0.00,,,0.00,weatherlink.com 1.10,2013-08-03 06:37:00,
2013-08-03 02:52:00,62.4,62.0,29.97,NNE,14,0.0,0.0,98,0.00,,,0.00,weatherlink.com 1.10,2013-08-03 06:52:00,
2013-08-03 03:07:00,62.1,62.0,29.97,NNE,14,0.0,0.0,98,0.00,,,0.00,weatherlink.com 1.10,2013-08-03 07:07:00,
2013-08-03 03:22:00,62.1,62.0,29.97,NNE,14,0.0,0.0,99,0.00,,,0.00,weatherlink.com 1.10,2013-08-03 07:22:00,
2013-08-03 03:37:00,61.8,61.0,29.97,NNE,14,0.0,0.0,98,0.00,,,0.00,weatherlink.com 1.10,2013-08-03 07:37:00,
2013-08-03 03:52:00,61.2,61.0,29.97,NNE,15,0.0,0.0,98,0.00,,,0.00,weatherlink.com 1.10,2013-08-03 07:52:00,
2013-08-03 04:07:00,60.6,60.0,29.97,NNE,15,0.0,0.0,98,0.00,,,0.00,weatherlink.com 1.10,2013-08-03 08:07:00,
2013-08-03 04:22:00,60.1,60.0,29.98,NNE,15,0.0,0.0,98,0.00,,,0.00,weatherlink.com 1.10,2013-08-03 08:22:00,
2013-08-03 04:37:00,59.6,59.0,29.98,NNE,14,0.0,0.0,98,0.00,,,0.00,weatherlink.com 1.10,2013-08-03 08:37:00,
2013-08-03 04:52:00,59.3,59.0,29.98,NNE,14,0.0,0.0,98,0.00,,,0.00,weatherlink.com 1.10,2013-08-03 08:52:00,
2013-08-03 05:07:00,59.0,59.0,29.98,NNE,15,0.0,0.0,98,0.00,,,0.00,weatherlink.com 1.10,2013-08-03 09:07:00,
2013-08-03 05:22:00,58.6,58.0,29.98,NNE,14,0.0,0.0,98,0.00,,,0.00,weatherlink.com 1.10,2013-08-03 09:22:00,
2013-08-03 05:37:00,58.2,58.0,29.99,NNE,14,0.0,0.0,98,0.00,,,0.00,weatherlink.com 1.10,2013-08-03 09:37:00,
2013-08-03 05:52:00,57.9,58.0,29.99,NNE,14,0.0,0.0,99,0.00,,,0.00,weatherlink.com 1.10,2013-08-03 09:52:00,
2013-08-03 06:07:00,57.5,57.0,29.99,NNE,14,0.0,0.0,99,0.00,,,0.00,weatherlink.com 1.10,2013-08-03 10:07:00,
2013-08-03 06:22:00,57.2,57.0,29.99,NNE,14,0.0,0.0,99,0.00,,,0.00,weatherlink.com 1.10,2013-08-03 10:22:00,
2013-08-03 06:37:00,57.1,57.0,30.00,NNE,15,0.0,0.0,99,0.00,,,0.00,weatherlink.com 1.10,2013-08-03 10:37:00,
2013-08-03 06:52:00,57.1,57.0,30.00,NNE,14,0.0,0.0,99,0.00,,,0.00,weatherlink.com 1.10,2013-08-03 10:52:00,
2013-08-03 07:07:00,57.1,57.0,30.00,NNE,14,0.0,0.0,99,0.00,,,0.00,weatherlink.com 1.10,2013-08-03 11:07:00,
2013-08-03 07:23:00,57.1,57.0,30.00,NNE,15,0.0,0.0,99,0.00,,,0.00,weatherlink.com 1.10,2013-08-03 11:23:00,
2013-08-03 07:38:00,57.3,57.0,30.01,NNE,14,0.0,0.0,99,0.00,,,0.00,weatherlink.com 1.10,2013-08-03 11:38:00,
2013-08-03 07:52:00,57.8,58.0,30.01,NNE,14,0.0,0.0,99,0.00,,,0.00,weatherlink.com 1.10,2013-08-03 11:52:00,
2013-08-03 08:06:00,58.7,59.0,30.02,NNE,15,0.0,0.0,99,0.00,,,0.00,weatherlink.com 1.10,2013-08-03 12:06:00,
2013-08-03 08:23:00,60.2,60.0,30.02,NNE,14,0.0,0.0,99,0.00,,,0.00,weatherlink.com 1.10,2013-08-03 12:23:00,
2013-08-03 08:38:00,62.2,62.0,30.02,NNE,14,0.0,0.0,99,0.00,,,0.00,weatherlink.com 1.10,2013-08-03 12:38:00,
2013-08-03 08:53:00,64.3,64.0,30.02,SSE,167,0.0,1.0,99,0.00,,,0.00,weatherlink.com 1.10,2013-08-03 12:53:00,
2013-08-03 09:08:00,65.1,65.0,30.02,South,169,0.0,0.0,99,0.00,,,0.00,weatherlink.com 1.10,2013-08-03 13:08:00,
2013-08-03 09:23:00,67.2,66.0,30.02,SSE,168,0.0,1.0,94,0.00,,,0.00,weatherlink.com 1.10,2013-08-03 13:23:00,
2013-08-03 09:38:00,69.4,65.0,30.03,South,169,0.0,0.0,86,0.00,,,0.00,weatherlink.com 1.10,2013-08-03 13:38:00,
2013-08-03 09:53:00,70.7,65.0,30.02,SSE,167,0.0,1.0,83,0.00,,,0.00,weatherlink.com 1.10,2013-08-03 13:53:00,
2013-08-03 10:08:00,72.0,65.0,30.02,SSW,207,0.0,1.0,79,0.00,,,0.00,weatherlink.com 1.10,2013-08-03 14:08:00,
2013-08-03 10:23:00,73.2,63.0,30.02,SSW,207,0.0,1.0,71,0.00,,,0.00,weatherlink.com 1.10,2013-08-03 14:23:00,
2013-08-03 10:38:00,73.4,63.0,30.03,NNW,333,1.0,2.0,69,0.00,,,0.00,weatherlink.com 1.10,2013-08-03 14:38:00,
2013-08-03 10:53:00,74.2,65.0,30.03,NNW,332,1.0,1.0,74,0.00,,,0.00,weatherlink.com 1.10,2013-08-03 14:53:00,
2013-08-03 11:08:00,74.2,63.0,30.03,NW,322,0.0,2.0,67,0.00,,,0.00,weatherlink.com 1.10,2013-08-03 15:08:00,
2013-08-03 11:23:00,74.6,63.0,30.04,NW,320,1.0,2.0,67,0.00,,,0.00,weatherlink.com 1.10,2013-08-03 15:23:00,
2013-08-03 11:38:00,75.2,63.0,30.03,WNW,284,1.0,2.0,65,0.00,,,0.00,weatherlink.com 1.10,2013-08-03 15:38:00,
2013-08-03 11:53:00,74.4,62.0,30.03,NNW,334,0.0,3.0,66,0.00,,,0.00,weatherlink.com 1.10,2013-08-03 15:53:00,
2013-08-03 12:08:00,74.1,60.0,30.04,NW,326,1.0,2.0,62,0.00,,,0.00,weatherlink.com 1.10,2013-08-03 16:08:00,
2013-08-03 12:23:00,74.5,61.0,30.04,NNW,331,1.0,4.0,62,0.00,,,0.00,weatherlink.com 1.10,2013-08-03 16:23:00,
2013-08-03 12:38:00,75.5,61.0,30.04,NNW,327,0.0,3.0,60,0.00,,,0.00,weatherlink.com 1.10,2013-08-03 16:38:00,
2013-08-03 12:53:00,76.0,59.0,30.04,NNW,340,1.0,3.0,55,0.00,,,0.00,weatherlink.com 1.10,2013-08-03 16:53:00,
2013-08-03 13:08:00,75.7,58.0,30.04,North,354,2.0,4.0,55,0.00,,,0.00,weatherlink.com 1.10,2013-08-03 17:08:00,
2013-08-03 13:23:00,74.9,58.0,30.05,NNW,332,0.0,3.0,56,0.00,,,0.00,weatherlink.com 1.10,2013-08-03 17:23:00,
2013-08-03 13:38:00,74.4,58.0,30.05,WSW,257,0.0,3.0,56,0.00,,,0.00,weatherlink.com 1.10,2013-08-03 17:38:00,
2013-08-03 13:53:00,74.6,56.0,30.05,NNW,342,0.0,4.0,53,0.00,,,0.00,weatherlink.com 1.10,2013-08-03 17:53:00,
2013-08-03 14:08:00,74.9,59.0,30.05,SW,216,1.0,2.0,58,0.00,,,0.00,weatherlink.com 1.10,2013-08-03 18:08:00,
2013-08-03 14:24:00,75.9,55.0,30.05,NW,320,0.0,2.0,49,0.00,,,0.00,weatherlink.com 1.10,2013-08-03 18:24:00,
2013-08-03 14:39:00,75.7,54.0,30.06,NNW,327,1.0,5.0,47,0.00,,,0.00,weatherlink.com 1.10,2013-08-03 18:39:00,
2013-08-03 14:54:00,75.8,55.0,30.05,NW,321,2.0,4.0,48,0.00,,,0.00,weatherlink.com 1.10,2013-08-03 18:54:00,
2013-08-03 15:09:00,75.6,57.0,30.05,WNW,290,2.0,4.0,52,0.00,,,0.00,weatherlink.com 1.10,2013-08-03 19:09:00,
2013-08-03 15:24:00,75.2,53.0,30.05,North,6,1.0,5.0,46,0.00,,,0.00,weatherlink.com 1.10,2013-08-03 19:24:00,
2013-08-03 15:40:00,75.7,53.0,30.05,NNW,342,2.0,3.0,45,0.00,,,0.00,weatherlink.com 1.10,2013-08-03 19:40:00,
2013-08-03 15:54:00,75.6,53.0,30.05,NNW,339,1.0,3.0,46,0.00,,,0.00,weatherlink.com 1.10,2013-08-03 19:54:00,
2013-08-03 16:09:00,75.4,57.0,30.05,NNW,345,0.0,2.0,54,0.00,,,0.00,weatherlink.com 1.10,2013-08-03 20:09:00,
2013-08-03 16:24:00,75.1,58.0,30.05,NNW,327,0.0,3.0,55,0.00,,,0.00,weatherlink.com 1.10,2013-08-03 20:24:00,
2013-08-03 16:39:00,74.6,59.0,30.06,NNW,330,0.0,4.0,58,0.00,,,0.00,weatherlink.com 1.10,2013-08-03 20:39:00,
2013-08-03 16:54:00,73.6,57.0,30.06,NNW,335,1.0,4.0,56,0.00,,,0.00,weatherlink.com 1.10,2013-08-03 20:54:00,
2013-08-03 17:08:00,73.0,56.0,30.06,NNW,335,2.0,4.0,56,0.00,,,0.00,weatherlink.com 1.10,2013-08-03 21:08:00,
2013-08-03 17:24:00,72.9,56.0,30.06,NNW,335,0.0,4.0,56,0.00,,,0.00,weatherlink.com 1.10,2013-08-03 21:24:00,
2013-08-03 17:39:00,72.4,57.0,30.06,North,354,1.0,3.0,58,0.00,,,0.00,weatherlink.com 1.10,2013-08-03 21:39:00,
2013-08-03 17:54:00,71.2,56.0,30.07,NW,314,0.0,5.0,60,0.00,,,0.00,weatherlink.com 1.10,2013-08-03 21:54:00,
2013-08-03 18:09:00,70.7,56.0,30.07,NW,316,2.0,3.0,59,0.00,,,0.00,weatherlink.com 1.10,2013-08-03 22:09:00,
2013-08-03 18:24:00,70.4,57.0,30.06,NW,323,2.0,3.0,62,0.00,,,0.00,weatherlink.com 1.10,2013-08-03 22:24:00,
2013-08-03 18:39:00,70.1,55.0,30.06,NNW,335,0.0,3.0,59,0.00,,,0.00,weatherlink.com 1.10,2013-08-03 22:39:00,
2013-08-03 18:54:00,70.3,54.0,30.06,North,354,1.0,2.0,56,0.00,,,0.00,weatherlink.com 1.10,2013-08-03 22:54:00,
2013-08-03 19:09:00,69.5,55.0,30.06,North,3,0.0,2.0,61,0.00,,,0.00,weatherlink.com 1.10,2013-08-03 23:09:00,
2013-08-03 19:24:00,68.9,55.0,30.06,NNW,332,0.0,1.0,62,0.00,,,0.00,weatherlink.com 1.10,2013-08-03 23:24:00,
2013-08-03 19:39:00,67.9,56.0,30.06,NNW,328,0.0,0.0,66,0.00,,,0.00,weatherlink.com 1.10,2013-08-03 23:39:00,
2013-08-03 19:54:00,67.2,55.0,30.06,North,3,0.0,1.0,65,0.00,,,0.00,weatherlink.com 1.10,2013-08-03 23:54:00,
2013-08-03 20:09:00,66.6,56.0,30.07,North,4,0.0,1.0,69,0.00,,,0.00,weatherlink.com 1.10,2013-08-04 00:09:00,
2013-08-03 20:24:00,65.7,54.0,30.07,North,1,0.0,1.0,67,0.00,,,0.00,weatherlink.com 1.10,2013-08-04 00:24:00,
2013-08-03 20:39:00,64.3,55.0,30.07,North,1,0.0,0.0,73,0.00,,,0.00,weatherlink.com 1.10,2013-08-04 00:39:00,
2013-08-03 20:54:00,62.6,55.0,30.07,North,1,0.0,0.0,75,0.00,,,0.00,weatherlink.com 1.10,2013-08-04 00:54:00,
2013-08-03 21:09:00,61.3,56.0,30.07,North,1,0.0,0.0,82,0.00,,,0.00,weatherlink.com 1.10,2013-08-04 01:09:00,
2013-08-03 21:24:00,59.9,55.0,30.07,North,1,0.0,0.0,83,0.00,,,0.00,weatherlink.com 1.10,2013-08-04 01:24:00,
2013-08-03 21:39:00,59.0,55.0,30.07,North,1,0.0,0.0,85,0.00,,,0.00,weatherlink.com 1.10,2013-08-04 01:39:00,
2013-08-03 21:54:00,58.3,55.0,30.08,North,1,0.0,0.0,87,0.00,,,0.00,weatherlink.com 1.10,2013-08-04 01:54:00,
2013-08-03 22:09:00,57.6,55.0,30.08,North,1,0.0,0.0,90,0.00,,,0.00,weatherlink.com 1.10,2013-08-04 02:09:00,
2013-08-03 22:24:00,57.0,55.0,30.09,North,1,0.0,0.0,91,0.00,,,0.00,weatherlink.com 1.10,2013-08-04 02:24:00,
2013-08-03 22:39:00,56.6,54.0,30.09,North,1,0.0,0.0,91,0.00,,,0.00,weatherlink.com 1.10,2013-08-04 02:39:00,
2013-08-03 22:54:00,56.1,54.0,30.10,North,1,0.0,0.0,92,0.00,,,0.00,weatherlink.com 1.10,2013-08-04 02:54:00,
2013-08-03 23:09:00,55.7,54.0,30.10,North,1,0.0,0.0,94,0.00,,,0.00,weatherlink.com 1.10,2013-08-04 03:09:00,
2013-08-03 23:24:00,55.4,54.0,30.10,North,1,0.0,0.0,94,0.00,,,0.00,weatherlink.com 1.10,2013-08-04 03:24:00,
2013-08-03 23:39:00,55.1,54.0,30.11,North,1,0.0,0.0,94,0.00,,,0.00,weatherlink.com 1.10,2013-08-04 03:39:00,
2013-08-03 23:54:00,54.8,53.0,30.11,North,1,0.0,0.0,95,0.00,,,0.00,weatherlink.com 1.10,2013-08-04 03:54:00,